sensor_id;sensor_type;location;lat;lon;timestamp;P1;durP1;ratioP1;P2;durP2;ratioP2
12956;SDS011;6543;48.836;10.092;2023-04-21T00:00:18;39.93;;;27.47;;
12956;SDS011;6543;48.836;10.092;2023-04-21T00:02:45;35.33;;;24.63;;
12956;SDS011;6543;48.836;10.092;2023-04-21T00:05:13;36.07;;;24.30;;
12956;SDS011;6543;48.836;10.092;2023-04-21T00:07:41;37.47;;;24.73;;
12956;SDS011;6543;48.836;10.092;2023-04-21T00:10:09;38.50;;;26.37;;
12956;SDS011;6543;48.836;10.092;2023-04-21T00:12:36;37.70;;;26.17;;
12956;SDS011;6543;48.836;10.092;2023-04-21T00:15:06;37.83;;;25.97;;
12956;SDS011;6543;48.836;10.092;2023-04-21T00:17:35;44.33;;;28.30;;
12956;SDS011;6543;48.836;10.092;2023-04-21T00:20:05;43.87;;;28.83;;
12956;SDS011;6543;48.836;10.092;2023-04-21T00:22:32;45.47;;;29.10;;
12956;SDS011;6543;48.836;10.092;2023-04-21T00:25:00;43.60;;;27.83;;
12956;SDS011;6543;48.836;10.092;2023-04-21T00:27:27;43.77;;;27.20;;
12956;SDS011;6543;48.836;10.092;2023-04-21T00:29:54;34.03;;;24.60;;
12956;SDS011;6543;48.836;10.092;2023-04-21T00:32:22;40.17;;;26.57;;
12956;SDS011;6543;48.836;10.092;2023-04-21T00:34:51;36.83;;;24.77;;
12956;SDS011;6543;48.836;10.092;2023-04-21T00:37:19;35.73;;;24.33;;
12956;SDS011;6543;48.836;10.092;2023-04-21T00:39:46;36.93;;;24.77;;
12956;SDS011;6543;48.836;10.092;2023-04-21T00:42:14;36.07;;;24.33;;
12956;SDS011;6543;48.836;10.092;2023-04-21T00:44:41;34.93;;;24.50;;
12956;SDS011;6543;48.836;10.092;2023-04-21T00:47:08;32.43;;;23.03;;
12956;SDS011;6543;48.836;10.092;2023-04-21T00:49:36;33.03;;;23.37;;
12956;SDS011;6543;48.836;10.092;2023-04-21T00:52:05;36.40;;;25.43;;
12956;SDS011;6543;48.836;10.092;2023-04-21T00:54:33;35.73;;;25.63;;
12956;SDS011;6543;48.836;10.092;2023-04-21T00:57:01;45.43;;;28.90;;
12956;SDS011;6543;48.836;10.092;2023-04-21T00:59:28;42.43;;;29.40;;
12956;SDS011;6543;48.836;10.092;2023-04-21T01:01:56;39.10;;;27.47;;
12956;SDS011;6543;48.836;10.092;2023-04-21T01:04:24;43.00;;;27.17;;
12956;SDS011;6543;48.836;10.092;2023-04-21T01:06:52;40.30;;;26.73;;
12956;SDS011;6543;48.836;10.092;2023-04-21T01:09:20;38.63;;;24.97;;
12956;SDS011;6543;48.836;10.092;2023-04-21T01:14:30;33.80;;;24.73;;
12956;SDS011;6543;48.836;10.092;2023-04-21T01:16:57;32.37;;;25.07;;
12956;SDS011;6543;48.836;10.092;2023-04-21T01:19:25;34.23;;;23.53;;
12956;SDS011;6543;48.836;10.092;2023-04-21T01:21:54;32.10;;;23.37;;
12956;SDS011;6543;48.836;10.092;2023-04-21T01:24:33;32.60;;;23.07;;
12956;SDS011;6543;48.836;10.092;2023-04-21T01:27:01;31.37;;;24.53;;
12956;SDS011;6543;48.836;10.092;2023-04-21T01:29:30;29.97;;;22.57;;
12956;SDS011;6543;48.836;10.092;2023-04-21T01:31:58;29.73;;;23.10;;
12956;SDS011;6543;48.836;10.092;2023-04-21T01:34:29;32.73;;;23.43;;
12956;SDS011;6543;48.836;10.092;2023-04-21T01:36:58;25.87;;;19.83;;
12956;SDS011;6543;48.836;10.092;2023-04-21T01:39:26;32.57;;;23.33;;
12956;SDS011;6543;48.836;10.092;2023-04-21T01:41:53;29.73;;;21.90;;
12956;SDS011;6543;48.836;10.092;2023-04-21T01:44:23;29.90;;;22.60;;
12956;SDS011;6543;48.836;10.092;2023-04-21T01:46:50;26.13;;;20.73;;
12956;SDS011;6543;48.836;10.092;2023-04-21T01:49:17;29.13;;;21.83;;
12956;SDS011;6543;48.836;10.092;2023-04-21T01:51:45;29.40;;;23.60;;
12956;SDS011;6543;48.836;10.092;2023-04-21T01:54:14;29.07;;;21.30;;
12956;SDS011;6543;48.836;10.092;2023-04-21T01:56:41;26.83;;;21.33;;
12956;SDS011;6543;48.836;10.092;2023-04-21T01:59:08;27.20;;;20.80;;
12956;SDS011;6543;48.836;10.092;2023-04-21T02:01:37;28.87;;;21.70;;
12956;SDS011;6543;48.836;10.092;2023-04-21T02:04:04;26.90;;;20.20;;
12956;SDS011;6543;48.836;10.092;2023-04-21T02:06:31;28.47;;;22.20;;
12956;SDS011;6543;48.836;10.092;2023-04-21T02:08:59;23.83;;;18.57;;
12956;SDS011;6543;48.836;10.092;2023-04-21T02:11:28;22.17;;;18.13;;
12956;SDS011;6543;48.836;10.092;2023-04-21T02:13:56;25.37;;;18.93;;
12956;SDS011;6543;48.836;10.092;2023-04-21T02:16:24;23.87;;;19.90;;
12956;SDS011;6543;48.836;10.092;2023-04-21T02:18:52;24.97;;;19.47;;
12956;SDS011;6543;48.836;10.092;2023-04-21T02:21:20;22.50;;;18.87;;
12956;SDS011;6543;48.836;10.092;2023-04-21T02:23:48;25.20;;;18.87;;
12956;SDS011;6543;48.836;10.092;2023-04-21T02:26:15;21.47;;;17.57;;
12956;SDS011;6543;48.836;10.092;2023-04-21T02:28:44;24.37;;;18.63;;
12956;SDS011;6543;48.836;10.092;2023-04-21T02:31:12;23.13;;;18.83;;
12956;SDS011;6543;48.836;10.092;2023-04-21T02:33:39;22.53;;;18.10;;
12956;SDS011;6543;48.836;10.092;2023-04-21T02:36:06;22.60;;;18.47;;
12956;SDS011;6543;48.836;10.092;2023-04-21T02:38:34;23.10;;;17.63;;
12956;SDS011;6543;48.836;10.092;2023-04-21T02:41:01;22.97;;;18.27;;
12956;SDS011;6543;48.836;10.092;2023-04-21T02:43:28;26.47;;;20.30;;
12956;SDS011;6543;48.836;10.092;2023-04-21T02:45:58;30.97;;;23.27;;
12956;SDS011;6543;48.836;10.092;2023-04-21T02:48:25;28.37;;;23.00;;
12956;SDS011;6543;48.836;10.092;2023-04-21T02:50:52;30.63;;;24.20;;
12956;SDS011;6543;48.836;10.092;2023-04-21T02:53:20;28.30;;;22.80;;
12956;SDS011;6543;48.836;10.092;2023-04-21T02:55:47;29.77;;;20.93;;
12956;SDS011;6543;48.836;10.092;2023-04-21T02:58:15;30.93;;;23.43;;
12956;SDS011;6543;48.836;10.092;2023-04-21T03:00:42;31.27;;;23.50;;
12956;SDS011;6543;48.836;10.092;2023-04-21T03:03:12;32.57;;;24.90;;
12956;SDS011;6543;48.836;10.092;2023-04-21T03:05:41;32.23;;;23.70;;
12956;SDS011;6543;48.836;10.092;2023-04-21T03:08:08;31.83;;;23.97;;
12956;SDS011;6543;48.836;10.092;2023-04-21T03:10:35;34.87;;;24.83;;
12956;SDS011;6543;48.836;10.092;2023-04-21T03:13:03;25.63;;;20.73;;
12956;SDS011;6543;48.836;10.092;2023-04-21T03:15:30;34.93;;;23.40;;
12956;SDS011;6543;48.836;10.092;2023-04-21T03:17:57;28.57;;;23.00;;
12956;SDS011;6543;48.836;10.092;2023-04-21T03:20:27;28.10;;;22.03;;
12956;SDS011;6543;48.836;10.092;2023-04-21T03:22:54;29.33;;;21.13;;
12956;SDS011;6543;48.836;10.092;2023-04-21T03:25:22;27.87;;;21.17;;
12956;SDS011;6543;48.836;10.092;2023-04-21T03:27:51;30.70;;;23.20;;
12956;SDS011;6543;48.836;10.092;2023-04-21T03:30:19;37.23;;;25.67;;
12956;SDS011;6543;48.836;10.092;2023-04-21T03:32:46;31.13;;;23.60;;
12956;SDS011;6543;48.836;10.092;2023-04-21T03:35:14;33.60;;;25.30;;
12956;SDS011;6543;48.836;10.092;2023-04-21T03:37:44;34.40;;;23.90;;
12956;SDS011;6543;48.836;10.092;2023-04-21T03:40:11;31.33;;;23.63;;
12956;SDS011;6543;48.836;10.092;2023-04-21T03:42:38;31.03;;;23.70;;
12956;SDS011;6543;48.836;10.092;2023-04-21T03:45:06;33.47;;;24.07;;
12956;SDS011;6543;48.836;10.092;2023-04-21T03:47:34;30.17;;;22.70;;
12956;SDS011;6543;48.836;10.092;2023-04-21T03:50:02;31.93;;;23.63;;
12956;SDS011;6543;48.836;10.092;2023-04-21T03:52:30;26.53;;;20.57;;
12956;SDS011;6543;48.836;10.092;2023-04-21T03:54:58;26.37;;;19.80;;
12956;SDS011;6543;48.836;10.092;2023-04-21T03:57:25;25.03;;;18.33;;
12956;SDS011;6543;48.836;10.092;2023-04-21T03:59:53;24.87;;;17.50;;
12956;SDS011;6543;48.836;10.092;2023-04-21T04:02:20;23.53;;;17.53;;
12956;SDS011;6543;48.836;10.092;2023-04-21T04:04:47;21.93;;;16.70;;
12956;SDS011;6543;48.836;10.092;2023-04-21T04:07:15;23.80;;;16.87;;
12956;SDS011;6543;48.836;10.092;2023-04-21T04:09:43;27.37;;;18.27;;
12956;SDS011;6543;48.836;10.092;2023-04-21T04:12:11;25.77;;;17.87;;
12956;SDS011;6543;48.836;10.092;2023-04-21T04:14:38;26.60;;;17.90;;
12956;SDS011;6543;48.836;10.092;2023-04-21T04:17:06;24.90;;;17.40;;
12956;SDS011;6543;48.836;10.092;2023-04-21T04:19:33;22.33;;;17.13;;
12956;SDS011;6543;48.836;10.092;2023-04-21T04:22:00;30.40;;;18.13;;
12956;SDS011;6543;48.836;10.092;2023-04-21T04:24:27;27.40;;;17.43;;
12956;SDS011;6543;48.836;10.092;2023-04-21T04:26:55;35.57;;;20.97;;
12956;SDS011;6543;48.836;10.092;2023-04-21T04:29:26;30.63;;;20.07;;
12956;SDS011;6543;48.836;10.092;2023-04-21T04:31:56;28.07;;;20.00;;
12956;SDS011;6543;48.836;10.092;2023-04-21T04:34:25;32.43;;;20.37;;
12956;SDS011;6543;48.836;10.092;2023-04-21T04:36:56;36.57;;;20.90;;
12956;SDS011;6543;48.836;10.092;2023-04-21T04:39:24;30.00;;;20.50;;
12956;SDS011;6543;48.836;10.092;2023-04-21T04:41:53;29.93;;;21.33;;
12956;SDS011;6543;48.836;10.092;2023-04-21T04:44:25;35.77;;;21.97;;
12956;SDS011;6543;48.836;10.092;2023-04-21T04:46:58;37.27;;;24.63;;
12956;SDS011;6543;48.836;10.092;2023-04-21T04:49:30;40.97;;;24.63;;
12956;SDS011;6543;48.836;10.092;2023-04-21T04:52:00;36.73;;;23.63;;
12956;SDS011;6543;48.836;10.092;2023-04-21T04:54:30;34.37;;;23.93;;
12956;SDS011;6543;48.836;10.092;2023-04-21T04:57:04;36.43;;;24.67;;
12956;SDS011;6543;48.836;10.092;2023-04-21T04:59:34;36.00;;;25.20;;
12956;SDS011;6543;48.836;10.092;2023-04-21T05:02:02;45.63;;;26.37;;
12956;SDS011;6543;48.836;10.092;2023-04-21T05:04:32;43.73;;;28.33;;
12956;SDS011;6543;48.836;10.092;2023-04-21T05:07:02;41.83;;;26.43;;
12956;SDS011;6543;48.836;10.092;2023-04-21T05:09:33;64.10;;;27.30;;
12956;SDS011;6543;48.836;10.092;2023-04-21T05:12:01;110.87;;;28.93;;
12956;SDS011;6543;48.836;10.092;2023-04-21T05:14:29;187.03;;;29.77;;
12956;SDS011;6543;48.836;10.092;2023-04-21T05:17:01;236.33;;;31.97;;
12956;SDS011;6543;48.836;10.092;2023-04-21T05:19:33;90.40;;;30.07;;
12956;SDS011;6543;48.836;10.092;2023-04-21T05:22:04;50.70;;;29.60;;
12956;SDS011;6543;48.836;10.092;2023-04-21T05:24:34;42.13;;;26.73;;
12956;SDS011;6543;48.836;10.092;2023-04-21T05:27:06;37.60;;;23.73;;
12956;SDS011;6543;48.836;10.092;2023-04-21T05:29:35;36.10;;;24.00;;
12956;SDS011;6543;48.836;10.092;2023-04-21T05:32:07;30.60;;;21.43;;
12956;SDS011;6543;48.836;10.092;2023-04-21T05:34:38;30.70;;;22.00;;
12956;SDS011;6543;48.836;10.092;2023-04-21T05:37:09;30.90;;;22.30;;
12956;SDS011;6543;48.836;10.092;2023-04-21T05:39:37;37.60;;;22.13;;
12956;SDS011;6543;48.836;10.092;2023-04-21T05:42:04;32.57;;;21.20;;
12956;SDS011;6543;48.836;10.092;2023-04-21T05:44:31;26.90;;;20.27;;
12956;SDS011;6543;48.836;10.092;2023-04-21T05:47:01;34.10;;;21.80;;
12956;SDS011;6543;48.836;10.092;2023-04-21T05:49:35;26.53;;;20.27;;
12956;SDS011;6543;48.836;10.092;2023-04-21T05:52:07;29.17;;;21.20;;
12956;SDS011;6543;48.836;10.092;2023-04-21T05:54:40;25.97;;;20.77;;
12956;SDS011;6543;48.836;10.092;2023-04-21T05:57:08;23.07;;;18.20;;
12956;SDS011;6543;48.836;10.092;2023-04-21T05:59:39;28.63;;;21.60;;
12956;SDS011;6543;48.836;10.092;2023-04-21T06:02:10;22.70;;;18.27;;
12956;SDS011;6543;48.836;10.092;2023-04-21T06:04:39;22.03;;;18.07;;
12956;SDS011;6543;48.836;10.092;2023-04-21T06:07:11;19.33;;;16.50;;
12956;SDS011;6543;48.836;10.092;2023-04-21T06:09:42;19.97;;;17.83;;
12956;SDS011;6543;48.836;10.092;2023-04-21T06:12:14;19.43;;;16.67;;
12956;SDS011;6543;48.836;10.092;2023-04-21T06:14:47;16.23;;;14.50;;
12956;SDS011;6543;48.836;10.092;2023-04-21T06:17:23;16.13;;;14.43;;
12956;SDS011;6543;48.836;10.092;2023-04-21T06:20:10;14.13;;;12.73;;
12956;SDS011;6543;48.836;10.092;2023-04-21T06:22:38;13.50;;;11.77;;
12956;SDS011;6543;48.836;10.092;2023-04-21T06:25:06;14.93;;;12.47;;
12956;SDS011;6543;48.836;10.092;2023-04-21T06:27:39;14.43;;;12.47;;
12956;SDS011;6543;48.836;10.092;2023-04-21T06:30:13;14.13;;;11.40;;
12956;SDS011;6543;48.836;10.092;2023-04-21T06:32:43;15.67;;;12.83;;
12956;SDS011;6543;48.836;10.092;2023-04-21T06:35:16;14.97;;;12.37;;
12956;SDS011;6543;48.836;10.092;2023-04-21T06:37:55;13.67;;;12.10;;
12956;SDS011;6543;48.836;10.092;2023-04-21T06:40:26;13.90;;;12.40;;
12956;SDS011;6543;48.836;10.092;2023-04-21T06:42:59;18.07;;;15.27;;
12956;SDS011;6543;48.836;10.092;2023-04-21T06:45:28;19.40;;;16.57;;
12956;SDS011;6543;48.836;10.092;2023-04-21T06:48:15;20.17;;;15.73;;
12956;SDS011;6543;48.836;10.092;2023-04-21T06:50:48;21.43;;;16.50;;
12956;SDS011;6543;48.836;10.092;2023-04-21T06:53:18;21.57;;;15.87;;
12956;SDS011;6543;48.836;10.092;2023-04-21T06:55:45;24.53;;;15.77;;
12956;SDS011;6543;48.836;10.092;2023-04-21T06:58:12;18.80;;;15.93;;
12956;SDS011;6543;48.836;10.092;2023-04-21T07:00:39;22.40;;;17.73;;
12956;SDS011;6543;48.836;10.092;2023-04-21T07:03:06;18.03;;;14.93;;
12956;SDS011;6543;48.836;10.092;2023-04-21T07:05:33;17.97;;;14.70;;
12956;SDS011;6543;48.836;10.092;2023-04-21T07:08:02;16.00;;;14.30;;
12956;SDS011;6543;48.836;10.092;2023-04-21T07:10:29;16.43;;;14.30;;
12956;SDS011;6543;48.836;10.092;2023-04-21T07:12:56;17.00;;;15.20;;
12956;SDS011;6543;48.836;10.092;2023-04-21T07:15:23;15.80;;;14.10;;
12956;SDS011;6543;48.836;10.092;2023-04-21T07:17:49;18.23;;;15.90;;
12956;SDS011;6543;48.836;10.092;2023-04-21T07:20:16;17.80;;;15.30;;
12956;SDS011;6543;48.836;10.092;2023-04-21T07:22:43;18.03;;;15.17;;
12956;SDS011;6543;48.836;10.092;2023-04-21T07:25:12;19.20;;;15.87;;
12956;SDS011;6543;48.836;10.092;2023-04-21T07:27:39;18.83;;;15.23;;
12956;SDS011;6543;48.836;10.092;2023-04-21T07:30:06;16.83;;;14.77;;
12956;SDS011;6543;48.836;10.092;2023-04-21T07:32:34;17.70;;;13.67;;
12956;SDS011;6543;48.836;10.092;2023-04-21T07:35:03;16.50;;;14.23;;
12956;SDS011;6543;48.836;10.092;2023-04-21T07:37:30;16.00;;;13.93;;
12956;SDS011;6543;48.836;10.092;2023-04-21T07:39:57;22.40;;;16.03;;
12956;SDS011;6543;48.836;10.092;2023-04-21T07:42:25;16.80;;;14.93;;
12956;SDS011;6543;48.836;10.092;2023-04-21T07:44:52;16.87;;;14.30;;
12956;SDS011;6543;48.836;10.092;2023-04-21T07:47:20;17.13;;;15.10;;
12956;SDS011;6543;48.836;10.092;2023-04-21T07:49:48;18.80;;;15.80;;
12956;SDS011;6543;48.836;10.092;2023-04-21T07:52:16;17.43;;;15.13;;
12956;SDS011;6543;48.836;10.092;2023-04-21T07:54:43;15.90;;;14.20;;
12956;SDS011;6543;48.836;10.092;2023-04-21T07:57:10;17.03;;;14.70;;
12956;SDS011;6543;48.836;10.092;2023-04-21T07:59:39;16.73;;;14.13;;
12956;SDS011;6543;48.836;10.092;2023-04-21T08:02:07;17.53;;;15.27;;
12956;SDS011;6543;48.836;10.092;2023-04-21T08:04:37;16.10;;;14.40;;
12956;SDS011;6543;48.836;10.092;2023-04-21T08:07:03;18.50;;;15.00;;
12956;SDS011;6543;48.836;10.092;2023-04-21T08:09:31;20.63;;;15.50;;
12956;SDS011;6543;48.836;10.092;2023-04-21T08:11:58;18.17;;;15.00;;
12956;SDS011;6543;48.836;10.092;2023-04-21T08:14:26;17.33;;;14.80;;
12956;SDS011;6543;48.836;10.092;2023-04-21T08:16:54;19.03;;;17.00;;
12956;SDS011;6543;48.836;10.092;2023-04-21T08:19:21;17.40;;;15.50;;
12956;SDS011;6543;48.836;10.092;2023-04-21T08:21:48;19.00;;;15.27;;
12956;SDS011;6543;48.836;10.092;2023-04-21T08:24:15;16.40;;;14.10;;
12956;SDS011;6543;48.836;10.092;2023-04-21T08:26:43;17.10;;;14.57;;
12956;SDS011;6543;48.836;10.092;2023-04-21T08:29:10;16.00;;;14.37;;
12956;SDS011;6543;48.836;10.092;2023-04-21T08:31:38;16.03;;;14.33;;
12956;SDS011;6543;48.836;10.092;2023-04-21T08:34:07;16.40;;;13.60;;
12956;SDS011;6543;48.836;10.092;2023-04-21T08:36:34;15.40;;;13.77;;
12956;SDS011;6543;48.836;10.092;2023-04-21T08:39:00;18.57;;;14.23;;
12956;SDS011;6543;48.836;10.092;2023-04-21T08:41:28;15.17;;;12.93;;
12956;SDS011;6543;48.836;10.092;2023-04-21T08:43:55;15.53;;;12.97;;
12956;SDS011;6543;48.836;10.092;2023-04-21T08:46:22;15.00;;;13.10;;
12956;SDS011;6543;48.836;10.092;2023-04-21T08:48:49;14.67;;;13.13;;
12956;SDS011;6543;48.836;10.092;2023-04-21T08:51:20;18.93;;;13.70;;
12956;SDS011;6543;48.836;10.092;2023-04-21T08:53:48;17.20;;;14.53;;
12956;SDS011;6543;48.836;10.092;2023-04-21T08:56:15;15.80;;;13.77;;
12956;SDS011;6543;48.836;10.092;2023-04-21T08:58:42;16.67;;;13.43;;
12956;SDS011;6543;48.836;10.092;2023-04-21T09:01:09;14.77;;;13.00;;
12956;SDS011;6543;48.836;10.092;2023-04-21T09:03:37;17.00;;;13.17;;
12956;SDS011;6543;48.836;10.092;2023-04-21T09:06:05;14.17;;;12.77;;
12956;SDS011;6543;48.836;10.092;2023-04-21T09:08:38;15.07;;;12.20;;
12956;SDS011;6543;48.836;10.092;2023-04-21T09:11:08;13.83;;;12.43;;
12956;SDS011;6543;48.836;10.092;2023-04-21T09:13:40;14.97;;;12.23;;
12956;SDS011;6543;48.836;10.092;2023-04-21T09:16:14;20.17;;;13.57;;
12956;SDS011;6543;48.836;10.092;2023-04-21T09:18:42;14.03;;;12.63;;
12956;SDS011;6543;48.836;10.092;2023-04-21T09:21:10;14.60;;;12.70;;
12956;SDS011;6543;48.836;10.092;2023-04-21T09:23:40;13.17;;;11.77;;
12956;SDS011;6543;48.836;10.092;2023-04-21T09:26:08;15.23;;;12.17;;
12956;SDS011;6543;48.836;10.092;2023-04-21T09:28:36;11.67;;;10.47;;
12956;SDS011;6543;48.836;10.092;2023-04-21T09:31:10;11.47;;;10.33;;
12956;SDS011;6543;48.836;10.092;2023-04-21T09:33:41;11.00;;;9.90;;
12956;SDS011;6543;48.836;10.092;2023-04-21T09:36:12;11.50;;;10.30;;
12956;SDS011;6543;48.836;10.092;2023-04-21T09:38:48;13.50;;;11.50;;
12956;SDS011;6543;48.836;10.092;2023-04-21T09:41:25;12.27;;;10.70;;
12956;SDS011;6543;48.836;10.092;2023-04-21T09:43:53;13.13;;;11.73;;
12956;SDS011;6543;48.836;10.092;2023-04-21T09:46:20;16.27;;;12.67;;
12956;SDS011;6543;48.836;10.092;2023-04-21T09:48:47;12.93;;;11.27;;
12956;SDS011;6543;48.836;10.092;2023-04-21T09:51:16;13.27;;;11.87;;
12956;SDS011;6543;48.836;10.092;2023-04-21T09:53:43;13.70;;;12.17;;
12956;SDS011;6543;48.836;10.092;2023-04-21T09:56:13;12.43;;;11.10;;
12956;SDS011;6543;48.836;10.092;2023-04-21T09:58:43;13.33;;;11.43;;
12956;SDS011;6543;48.836;10.092;2023-04-21T10:01:13;11.03;;;9.93;;
12956;SDS011;6543;48.836;10.092;2023-04-21T10:03:40;10.50;;;9.50;;
12956;SDS011;6543;48.836;10.092;2023-04-21T10:06:09;13.47;;;10.27;;
12956;SDS011;6543;48.836;10.092;2023-04-21T10:08:37;12.80;;;10.60;;
12956;SDS011;6543;48.836;10.092;2023-04-21T10:11:05;15.50;;;10.63;;
12956;SDS011;6543;48.836;10.092;2023-04-21T10:13:34;10.57;;;9.47;;
12956;SDS011;6543;48.836;10.092;2023-04-21T10:16:03;11.30;;;10.20;;
12956;SDS011;6543;48.836;10.092;2023-04-21T10:18:33;12.97;;;10.50;;
12956;SDS011;6543;48.836;10.092;2023-04-21T10:21:03;12.80;;;10.10;;
12956;SDS011;6543;48.836;10.092;2023-04-21T10:23:35;11.93;;;10.37;;
12956;SDS011;6543;48.836;10.092;2023-04-21T10:26:07;10.43;;;9.37;;
12956;SDS011;6543;48.836;10.092;2023-04-21T10:28:40;11.07;;;9.93;;
12956;SDS011;6543;48.836;10.092;2023-04-21T10:31:21;11.47;;;8.97;;
12956;SDS011;6543;48.836;10.092;2023-04-21T10:39:55;10.27;;;9.17;;
12956;SDS011;6543;48.836;10.092;2023-04-21T10:42:23;12.20;;;10.20;;
12956;SDS011;6543;48.836;10.092;2023-04-21T10:45:07;13.17;;;9.87;;
12956;SDS011;6543;48.836;10.092;2023-04-21T10:47:36;11.00;;;9.77;;
12956;SDS011;6543;48.836;10.092;2023-04-21T10:50:10;11.33;;;9.57;;
12956;SDS011;6543;48.836;10.092;2023-04-21T10:52:38;11.37;;;10.27;;
12956;SDS011;6543;48.836;10.092;2023-04-21T10:55:10;11.03;;;9.37;;
12956;SDS011;6543;48.836;10.092;2023-04-21T10:57:40;13.47;;;9.43;;
12956;SDS011;6543;48.836;10.092;2023-04-21T11:00:13;9.73;;;8.13;;
12956;SDS011;6543;48.836;10.092;2023-04-21T11:02:41;9.07;;;8.13;;
12956;SDS011;6543;48.836;10.092;2023-04-21T11:05:09;8.67;;;7.70;;
12956;SDS011;6543;48.836;10.092;2023-04-21T11:07:36;10.10;;;9.00;;
12956;SDS011;6543;48.836;10.092;2023-04-21T11:10:04;10.77;;;8.97;;
12956;SDS011;6543;48.836;10.092;2023-04-21T11:12:34;10.50;;;9.30;;
12956;SDS011;6543;48.836;10.092;2023-04-21T11:15:04;10.97;;;9.03;;
12956;SDS011;6543;48.836;10.092;2023-04-21T11:17:34;11.03;;;9.87;;
12956;SDS011;6543;48.836;10.092;2023-04-21T11:20:04;12.10;;;9.17;;
12956;SDS011;6543;48.836;10.092;2023-04-21T11:22:32;12.63;;;9.07;;
12956;SDS011;6543;48.836;10.092;2023-04-21T11:25:01;9.30;;;8.13;;
12956;SDS011;6543;48.836;10.092;2023-04-21T11:27:28;10.13;;;7.97;;
12956;SDS011;6543;48.836;10.092;2023-04-21T11:29:56;8.77;;;7.87;;
12956;SDS011;6543;48.836;10.092;2023-04-21T11:32:23;9.17;;;8.17;;
12956;SDS011;6543;48.836;10.092;2023-04-21T11:34:52;10.33;;;9.33;;
12956;SDS011;6543;48.836;10.092;2023-04-21T11:37:21;8.63;;;7.60;;
12956;SDS011;6543;48.836;10.092;2023-04-21T11:39:55;13.33;;;7.83;;
12956;SDS011;6543;48.836;10.092;2023-04-21T11:42:23;8.40;;;7.57;;
12956;SDS011;6543;48.836;10.092;2023-04-21T11:44:52;8.63;;;7.13;;
12956;SDS011;6543;48.836;10.092;2023-04-21T11:47:21;8.93;;;7.53;;
12956;SDS011;6543;48.836;10.092;2023-04-21T11:49:49;8.20;;;7.30;;
12956;SDS011;6543;48.836;10.092;2023-04-21T11:52:21;9.57;;;8.23;;
12956;SDS011;6543;48.836;10.092;2023-04-21T11:54:55;9.77;;;8.73;;
12956;SDS011;6543;48.836;10.092;2023-04-21T11:57:24;9.17;;;7.90;;
12956;SDS011;6543;48.836;10.092;2023-04-21T11:59:52;8.70;;;7.73;;
12956;SDS011;6543;48.836;10.092;2023-04-21T12:02:20;11.77;;;7.57;;
12956;SDS011;6543;48.836;10.092;2023-04-21T12:04:57;9.83;;;7.77;;
12956;SDS011;6543;48.836;10.092;2023-04-21T12:07:25;11.83;;;8.40;;
12956;SDS011;6543;48.836;10.092;2023-04-21T12:09:54;8.27;;;7.40;;
12956;SDS011;6543;48.836;10.092;2023-04-21T12:12:21;8.40;;;7.60;;
12956;SDS011;6543;48.836;10.092;2023-04-21T12:14:49;8.80;;;7.03;;
12956;SDS011;6543;48.836;10.092;2023-04-21T12:17:17;8.83;;;7.23;;
12956;SDS011;6543;48.836;10.092;2023-04-21T12:19:44;6.80;;;5.90;;
12956;SDS011;6543;48.836;10.092;2023-04-21T12:22:13;7.60;;;6.90;;
12956;SDS011;6543;48.836;10.092;2023-04-21T12:24:42;8.17;;;7.37;;
12956;SDS011;6543;48.836;10.092;2023-04-21T12:27:09;7.37;;;6.67;;
12956;SDS011;6543;48.836;10.092;2023-04-21T12:29:37;8.17;;;7.00;;
12956;SDS011;6543;48.836;10.092;2023-04-21T12:32:04;6.60;;;5.90;;
12956;SDS011;6543;48.836;10.092;2023-04-21T12:34:32;7.27;;;6.57;;
12956;SDS011;6543;48.836;10.092;2023-04-21T12:36:59;11.30;;;6.97;;
12956;SDS011;6543;48.836;10.092;2023-04-21T12:39:27;7.67;;;6.93;;
12956;SDS011;6543;48.836;10.092;2023-04-21T12:41:55;7.10;;;6.40;;
12956;SDS011;6543;48.836;10.092;2023-04-21T12:44:22;7.63;;;6.70;;
12956;SDS011;6543;48.836;10.092;2023-04-21T12:46:49;7.50;;;6.70;;
12956;SDS011;6543;48.836;10.092;2023-04-21T12:49:16;10.53;;;7.40;;
12956;SDS011;6543;48.836;10.092;2023-04-21T12:51:44;7.43;;;5.93;;
12956;SDS011;6543;48.836;10.092;2023-04-21T12:54:11;6.20;;;5.57;;
12956;SDS011;6543;48.836;10.092;2023-04-21T12:56:40;7.77;;;6.00;;
12956;SDS011;6543;48.836;10.092;2023-04-21T12:59:07;7.23;;;5.73;;
12956;SDS011;6543;48.836;10.092;2023-04-21T13:01:35;7.70;;;6.87;;
12956;SDS011;6543;48.836;10.092;2023-04-21T13:04:02;9.57;;;7.07;;
12956;SDS011;6543;48.836;10.092;2023-04-21T13:06:30;7.53;;;5.57;;
12956;SDS011;6543;48.836;10.092;2023-04-21T13:08:58;8.00;;;5.97;;
12956;SDS011;6543;48.836;10.092;2023-04-21T13:11:25;6.07;;;5.47;;
12956;SDS011;6543;48.836;10.092;2023-04-21T13:13:54;6.33;;;5.73;;
12956;SDS011;6543;48.836;10.092;2023-04-21T13:16:21;7.60;;;4.47;;
12956;SDS011;6543;48.836;10.092;2023-04-21T13:18:48;7.97;;;4.30;;
12956;SDS011;6543;48.836;10.092;2023-04-21T13:21:15;6.50;;;4.37;;
12956;SDS011;6543;48.836;10.092;2023-04-21T13:23:42;5.13;;;3.60;;
12956;SDS011;6543;48.836;10.092;2023-04-21T13:26:09;4.80;;;4.30;;
12956;SDS011;6543;48.836;10.092;2023-04-21T13:28:36;6.43;;;4.33;;
12956;SDS011;6543;48.836;10.092;2023-04-21T13:31:05;5.97;;;4.10;;
12956;SDS011;6543;48.836;10.092;2023-04-21T13:33:32;4.33;;;3.93;;
12956;SDS011;6543;48.836;10.092;2023-04-21T13:35:59;5.63;;;4.23;;
12956;SDS011;6543;48.836;10.092;2023-04-21T13:38:27;5.37;;;4.87;;
12956;SDS011;6543;48.836;10.092;2023-04-21T13:40:55;4.80;;;4.40;;
12956;SDS011;6543;48.836;10.092;2023-04-21T13:43:22;7.17;;;4.93;;
12956;SDS011;6543;48.836;10.092;2023-04-21T13:45:49;4.27;;;3.87;;
12956;SDS011;6543;48.836;10.092;2023-04-21T13:48:18;6.60;;;4.00;;
12956;SDS011;6543;48.836;10.092;2023-04-21T13:50:48;5.47;;;3.60;;
12956;SDS011;6543;48.836;10.092;2023-04-21T13:53:19;5.77;;;3.23;;
12956;SDS011;6543;48.836;10.092;2023-04-21T13:55:48;3.63;;;3.17;;
12956;SDS011;6543;48.836;10.092;2023-04-21T13:58:16;3.83;;;3.17;;
12956;SDS011;6543;48.836;10.092;2023-04-21T14:00:44;3.50;;;3.20;;
12956;SDS011;6543;48.836;10.092;2023-04-21T14:03:11;5.47;;;3.40;;
12956;SDS011;6543;48.836;10.092;2023-04-21T14:05:40;3.57;;;3.27;;
12956;SDS011;6543;48.836;10.092;2023-04-21T14:08:08;3.93;;;3.50;;
12956;SDS011;6543;48.836;10.092;2023-04-21T14:10:35;4.50;;;3.83;;
12956;SDS011;6543;48.836;10.092;2023-04-21T14:13:02;2.50;;;2.23;;
12956;SDS011;6543;48.836;10.092;2023-04-21T14:15:29;3.93;;;2.77;;
12956;SDS011;6543;48.836;10.092;2023-04-21T14:17:56;4.70;;;3.23;;
12956;SDS011;6543;48.836;10.092;2023-04-21T14:20:24;4.77;;;4.30;;
12956;SDS011;6543;48.836;10.092;2023-04-21T14:22:53;4.63;;;3.80;;
12956;SDS011;6543;48.836;10.092;2023-04-21T14:25:20;3.30;;;3.00;;
12956;SDS011;6543;48.836;10.092;2023-04-21T14:27:47;3.67;;;3.37;;
12956;SDS011;6543;48.836;10.092;2023-04-21T14:30:14;4.53;;;3.90;;
12956;SDS011;6543;48.836;10.092;2023-04-21T14:32:41;4.13;;;3.27;;
12956;SDS011;6543;48.836;10.092;2023-04-21T14:35:10;5.10;;;3.27;;
12956;SDS011;6543;48.836;10.092;2023-04-21T14:37:40;6.73;;;4.50;;
12956;SDS011;6543;48.836;10.092;2023-04-21T14:40:14;5.50;;;4.40;;
12956;SDS011;6543;48.836;10.092;2023-04-21T14:42:41;5.50;;;5.00;;
12956;SDS011;6543;48.836;10.092;2023-04-21T14:45:08;6.57;;;5.53;;